Terminal Aerodrome Forecast
Issued by NWS

Home | Current Version | Previous Version | Text Only | Print | Product List | Glossary On
Versions: 1 2 3 4 5 6 7 8 9 10 11 12 13 14 15 16 17 18 19
000
FTUS46 KPQR 192338
TAFONP
TAF
KONP 192338Z 2000/2024 22010G18KT P6SM SCT025 BKN050
     FM200600 15003KT P6SM SCT150
     FM201000 VRB03KT 4SM BR SCT250
     FM201800 17008KT P6SM BKN150=

USA.gov is the U.S. government's official web portal to all federal, state and local government web resources and services.